createdAt,value
2022-11-21T00:01:55.169Z,12.73
2022-11-21T00:04:22.630Z,15.73
2022-11-21T00:06:51.819Z,13.53
2022-11-21T00:09:19.260Z,15.43
2022-11-21T00:11:46.863Z,15.20
2022-11-21T00:14:14.214Z,13.27
2022-11-21T00:16:41.824Z,13.67
2022-11-21T00:19:09.577Z,14.13
2022-11-21T00:21:36.845Z,13.77
2022-11-21T00:24:04.409Z,15.10
2022-11-21T00:26:31.964Z,15.83
2022-11-21T00:28:59.427Z,14.33
2022-11-21T00:31:26.591Z,13.93
2022-11-21T00:33:53.989Z,14.60
2022-11-21T00:36:21.408Z,15.73
2022-11-21T00:38:48.902Z,14.57
2022-11-21T00:41:16.464Z,15.23
2022-11-21T00:43:43.901Z,14.57
2022-11-21T00:46:11.246Z,15.83
2022-11-21T00:48:38.686Z,14.17
2022-11-21T00:51:06.086Z,16.30
2022-11-21T00:53:33.073Z,14.60
2022-11-21T00:56:00.431Z,15.67
2022-11-21T00:58:28.529Z,15.30
2022-11-21T01:01:14.718Z,15.10
2022-11-21T01:03:42.564Z,15.23
2022-11-21T01:06:11.941Z,16.33
2022-11-21T01:08:42.540Z,18.03
2022-11-21T01:11:13.202Z,16.63
2022-11-21T01:13:41.200Z,16.03
2022-11-21T01:16:28.204Z,16.30
2022-11-21T01:18:55.934Z,16.80
2022-11-21T01:21:28.825Z,14.53
2022-11-21T01:23:58.584Z,16.43
2022-11-21T01:26:27.851Z,14.50
2022-11-21T01:28:55.505Z,14.80
2022-11-21T01:31:28.193Z,15.00
2022-11-21T01:33:57.227Z,14.10
2022-11-21T01:36:24.650Z,15.50
2022-11-21T01:38:54.088Z,14.57
2022-11-21T01:41:35.538Z,15.10
2022-11-21T01:44:10.017Z,13.63
2022-11-21T01:46:37.842Z,13.87
2022-11-21T01:49:12.346Z,15.20
2022-11-21T01:51:53.956Z,15.23
2022-11-21T01:54:24.500Z,15.87
2022-11-21T01:57:06.890Z,14.97
2022-11-21T02:00:07.453Z,13.73
2022-11-21T02:02:41.814Z,14.73
2022-11-21T02:05:13.438Z,14.20
2022-11-21T02:07:43.121Z,14.80
2022-11-21T02:10:11.087Z,14.20
2022-11-21T02:12:50.830Z,15.47
2022-11-21T02:15:19.335Z,14.23
2022-11-21T02:17:46.692Z,14.37
2022-11-21T02:20:16.855Z,14.03
2022-11-21T02:23:13.863Z,16.57
2022-11-21T02:25:42.557Z,14.40
2022-11-21T02:28:13.901Z,15.80
2022-11-21T02:30:42.505Z,14.90
2022-11-21T02:33:11.150Z,14.10
2022-11-21T02:35:38.645Z,14.87
2022-11-21T02:38:11.897Z,15.33
2022-11-21T02:40:44.109Z,15.60
2022-11-21T02:43:19.762Z,14.50
2022-11-21T02:45:47.127Z,14.70
2022-11-21T02:48:14.913Z,15.87
2022-11-21T02:50:44.979Z,16.17
2022-11-21T02:53:17.453Z,13.53
2022-11-21T02:55:44.995Z,15.73
2022-11-21T02:58:12.780Z,14.80
2022-11-21T03:00:41.593Z,14.07
2022-11-21T03:03:09.280Z,15.40
2022-11-21T03:05:37.143Z,15.70
2022-11-21T03:08:06.336Z,14.60
2022-11-21T03:10:33.780Z,14.47
2022-11-21T03:13:01.707Z,15.10
2022-11-21T03:15:30.943Z,14.60
2022-11-21T03:17:58.433Z,14.57
2022-11-21T03:20:26.019Z,13.93
2022-11-21T03:22:53.668Z,15.30
2022-11-21T03:25:21.183Z,16.80
2022-11-21T03:27:52.386Z,16.83
2022-11-21T03:30:20.982Z,15.53
2022-11-21T03:32:48.438Z,15.67
2022-11-21T03:35:15.983Z,15.17
2022-11-21T03:37:43.410Z,14.47
2022-11-21T03:40:11.700Z,15.47
2022-11-21T03:42:39.174Z,14.83
2022-11-21T03:45:06.879Z,16.13
2022-11-21T03:47:34.393Z,17.00
2022-11-21T03:50:01.859Z,16.03
2022-11-21T03:52:29.276Z,15.73
2022-11-21T03:54:56.669Z,15.80
2022-11-21T03:57:24.018Z,16.10
2022-11-21T03:59:51.469Z,17.97
2022-11-21T04:02:18.832Z,16.90
2022-11-21T04:04:46.220Z,16.37
2022-11-21T04:07:13.601Z,16.27
2022-11-21T04:09:40.670Z,15.83
2022-11-21T04:12:08.189Z,16.97
2022-11-21T04:14:35.635Z,16.10
2022-11-21T04:17:03.038Z,17.03
2022-11-21T04:19:30.429Z,16.00
2022-11-21T04:21:57.801Z,16.43
2022-11-21T04:24:25.372Z,17.10
2022-11-21T04:26:55.370Z,17.70
2022-11-21T04:29:22.776Z,16.50
2022-11-21T04:31:50.175Z,16.93
2022-11-21T04:34:17.560Z,15.63
2022-11-21T04:36:44.969Z,16.23
2022-11-21T04:39:12.405Z,17.53
2022-11-21T04:41:39.808Z,16.00
2022-11-21T04:44:07.344Z,17.47
2022-11-21T04:46:34.826Z,17.10
2022-11-21T04:49:02.301Z,17.73
2022-11-21T04:51:29.742Z,17.10
2022-11-21T04:53:57.103Z,16.53
2022-11-21T04:56:24.535Z,15.70
2022-11-21T04:58:52.990Z,17.17
2022-11-21T05:01:20.466Z,16.57
2022-11-21T05:03:47.997Z,17.83
2022-11-21T05:06:15.413Z,16.30
2022-11-21T05:08:43.548Z,25.45
2022-11-21T05:11:31.784Z,19.73
2022-11-21T05:13:59.157Z,18.87
2022-11-21T05:16:26.193Z,15.77
2022-11-21T05:18:53.563Z,16.30
2022-11-21T05:21:20.935Z,17.00
2022-11-21T05:23:48.294Z,17.03
2022-11-21T05:26:15.667Z,17.77
2022-11-21T05:28:43.036Z,15.97
2022-11-21T05:31:10.568Z,15.67
2022-11-21T05:33:37.958Z,17.00
2022-11-21T05:36:05.712Z,15.93
2022-11-21T05:38:33.191Z,17.93
2022-11-21T05:41:00.486Z,16.97
2022-11-21T05:43:46.405Z,19.38
2022-11-21T05:46:16.607Z,18.10
2022-11-21T05:48:44.618Z,17.50
2022-11-21T05:51:12.915Z,16.97
2022-11-21T05:53:41.018Z,18.00
2022-11-21T05:56:10.714Z,16.83
2022-11-21T05:58:38.502Z,14.67
2022-11-21T06:01:06.858Z,16.67
2022-11-21T06:03:36.713Z,15.10
2022-11-21T06:06:04.084Z,16.43
2022-11-21T06:08:33.993Z,15.90
2022-11-21T06:11:02.379Z,14.70
2022-11-21T06:13:29.784Z,15.40
2022-11-21T06:16:02.560Z,15.67
2022-11-21T06:18:32.673Z,14.03
2022-11-21T06:21:05.309Z,16.80
2022-11-21T06:23:32.784Z,16.17
2022-11-21T06:26:01.559Z,17.40
2022-11-21T06:28:33.614Z,15.80
2022-11-21T06:31:08.459Z,15.93
2022-11-21T06:33:36.755Z,14.20
2022-11-21T06:36:05.377Z,17.20
2022-11-21T06:38:33.138Z,16.40
2022-11-21T06:41:12.789Z,17.03
2022-11-21T06:43:40.577Z,17.60
2022-11-21T06:46:07.836Z,16.47
2022-11-21T06:48:36.258Z,17.83
2022-11-21T06:51:29.544Z,18.23
2022-11-21T06:53:59.085Z,17.47
2022-11-21T06:56:28.083Z,17.37
2022-11-21T06:58:57.720Z,17.73
2022-11-21T07:01:25.253Z,16.60
2022-11-21T07:03:52.925Z,15.97
2022-11-21T07:06:20.451Z,18.03
2022-11-21T07:08:52.481Z,15.47
2022-11-21T07:11:27.534Z,17.37
2022-11-21T07:13:54.999Z,16.53
2022-11-21T07:16:22.370Z,16.20
2022-11-21T07:18:49.742Z,17.23
2022-11-21T07:21:17.167Z,16.43
2022-11-21T07:23:44.578Z,17.33
2022-11-21T07:26:12.084Z,16.60
2022-11-21T07:28:39.622Z,19.17
2022-11-21T07:31:12.996Z,16.40
2022-11-21T07:33:41.080Z,16.50
2022-11-21T07:36:08.125Z,18.07
2022-11-21T07:38:35.695Z,18.40
2022-11-21T07:41:03.088Z,19.10
2022-11-21T07:43:30.513Z,17.77
2022-11-21T07:45:57.927Z,19.80
2022-11-21T07:48:25.330Z,20.43
2022-11-21T07:50:52.813Z,22.60
2022-11-21T07:53:20.191Z,21.43
2022-11-21T07:55:47.225Z,21.47
2022-11-21T07:58:16.812Z,20.80
2022-11-21T08:00:44.268Z,22.50
2022-11-21T08:03:13.236Z,23.53
2022-11-21T08:05:42.145Z,25.17
2022-11-21T08:08:10.352Z,24.53
2022-11-21T08:10:42.457Z,25.03
2022-11-21T08:13:10.035Z,24.63
2022-11-21T08:15:37.664Z,24.87
2022-11-21T08:18:12.948Z,25.43
2022-11-21T08:20:40.680Z,24.63
2022-11-21T08:23:08.308Z,24.73
2022-11-21T08:25:37.629Z,25.50
2022-11-21T08:28:05.134Z,26.13
2022-11-21T08:30:33.385Z,26.20
2022-11-21T08:33:01.236Z,26.00
2022-11-21T08:35:29.069Z,24.80
2022-11-21T08:37:57.449Z,29.10
2022-11-21T08:40:26.306Z,26.57
2022-11-21T08:43:01.348Z,25.93
2022-11-21T08:45:28.883Z,27.13
2022-11-21T08:47:56.563Z,26.93
2022-11-21T08:50:24.259Z,28.27
2022-11-21T08:52:51.988Z,30.00
2022-11-21T08:55:19.400Z,30.40
2022-11-21T08:57:46.768Z,30.87
2022-11-21T09:00:14.387Z,32.17
2022-11-21T09:02:41.843Z,30.07
2022-11-21T09:05:09.644Z,30.33
2022-11-21T09:07:37.389Z,31.53
2022-11-21T09:10:04.960Z,31.17
2022-11-21T09:12:32.400Z,29.73
2022-11-21T09:15:18.569Z,31.13
2022-11-21T09:18:03.690Z,30.97
2022-11-21T09:20:32.184Z,28.60
2022-11-21T09:23:04.638Z,26.73
2022-11-21T09:25:32.026Z,27.57
2022-11-21T09:28:01.098Z,26.07
2022-11-21T09:30:28.103Z,23.10
2022-11-21T09:32:55.548Z,22.80
2022-11-21T09:35:22.485Z,26.60
2022-11-21T09:37:51.449Z,24.50
2022-11-21T09:40:19.574Z,24.30
2022-11-21T09:43:24.277Z,24.97
2022-11-21T09:45:58.041Z,25.37
2022-11-21T09:48:36.336Z,24.93
2022-11-21T09:51:12.085Z,25.23
2022-11-21T09:53:51.561Z,23.07
2022-11-21T09:56:23.588Z,25.37
2022-11-21T09:59:35.482Z,27.23
2022-11-21T10:02:08.236Z,26.77
2022-11-21T10:04:35.725Z,23.13
2022-11-21T10:07:03.840Z,24.43
2022-11-21T10:09:36.350Z,23.00
2022-11-21T10:12:37.205Z,25.17
2022-11-21T10:15:34.647Z,23.87
2022-11-21T10:18:02.036Z,22.57
2022-11-21T10:20:41.339Z,23.37
2022-11-21T10:23:29.995Z,21.77
2022-11-21T10:26:21.216Z,22.93
2022-11-21T10:28:48.532Z,24.63
2022-11-21T10:31:16.077Z,22.20
2022-11-21T10:33:43.533Z,21.00
2022-11-21T10:36:34.908Z,22.27
2022-11-21T10:39:14.774Z,25.43
2022-11-21T10:41:55.360Z,21.60
2022-11-21T10:44:48.625Z,21.07
2022-11-21T10:47:27.689Z,20.83
2022-11-21T10:50:19.653Z,18.07
2022-11-21T10:52:53.856Z,18.90
2022-11-21T10:55:21.201Z,17.27
2022-11-21T10:57:52.442Z,18.40
2022-11-21T11:00:23.129Z,19.87
2022-11-21T11:03:16.668Z,18.57
2022-11-21T11:05:55.506Z,18.00
2022-11-21T11:08:22.937Z,16.27
2022-11-21T11:11:07.913Z,17.73
2022-11-21T11:14:10.850Z,15.90
2022-11-21T11:16:47.080Z,14.47
2022-11-21T11:19:14.474Z,16.40
2022-11-21T11:21:41.792Z,14.63
2022-11-21T11:24:11.917Z,12.70
2022-11-21T11:26:49.296Z,12.60
2022-11-21T11:29:22.477Z,12.73
2022-11-21T11:32:20.658Z,14.17
2022-11-21T11:34:57.055Z,15.20
2022-11-21T11:37:26.871Z,13.70
2022-11-21T11:40:21.815Z,13.07
2022-11-21T11:43:08.129Z,12.63
2022-11-21T11:46:05.839Z,11.47
2022-11-21T11:48:56.229Z,11.83
2022-11-21T11:51:32.018Z,12.27
2022-11-21T11:54:12.511Z,12.37
2022-11-21T11:56:42.257Z,11.93
2022-11-21T11:59:28.430Z,10.77
2022-11-21T12:02:20.675Z,12.63
2022-11-21T12:05:01.181Z,13.60
2022-11-21T12:08:40.104Z,12.60
2022-11-21T12:11:24.770Z,12.87
2022-11-21T12:13:55.422Z,13.33
2022-11-21T12:16:25.947Z,12.70
2022-11-21T12:19:02.900Z,12.63
2022-11-21T12:21:30.244Z,12.60
2022-11-21T12:23:58.868Z,13.53
2022-11-21T12:26:33.516Z,11.53
2022-11-21T12:29:12.091Z,10.87
2022-11-21T12:31:57.612Z,10.60
2022-11-21T12:35:11.588Z,11.40
2022-11-21T12:37:47.313Z,11.13
2022-11-21T12:40:34.880Z,10.50
2022-11-21T12:43:19.233Z,10.43
2022-11-21T12:46:20.880Z,11.40
2022-11-21T12:49:23.541Z,10.97
2022-11-21T12:52:20.974Z,10.10
2022-11-21T12:55:09.543Z,10.33
2022-11-21T12:58:01.208Z,9.90
2022-11-21T13:00:49.389Z,10.90
2022-11-21T13:03:33.355Z,10.97
2022-11-21T13:06:02.212Z,12.33
2022-11-21T13:08:31.921Z,10.40
2022-11-21T13:11:30.897Z,10.67
2022-11-21T13:14:15.090Z,11.53
2022-11-21T13:16:48.424Z,11.80
2022-11-21T13:19:49.289Z,11.10
2022-11-21T13:22:37.884Z,11.47
2022-11-21T13:25:13.319Z,11.83
2022-11-21T13:27:44.806Z,12.20
2022-11-21T13:30:12.257Z,10.30
2022-11-21T13:32:46.941Z,12.83
2022-11-21T13:35:19.806Z,11.50
2022-11-21T13:37:50.005Z,11.37
2022-11-21T13:40:31.963Z,11.33
2022-11-21T13:43:32.650Z,10.93
2022-11-21T13:46:00.779Z,9.57
2022-11-21T13:48:30.857Z,10.17
2022-11-21T13:51:17.533Z,10.93
2022-11-21T13:53:59.549Z,9.77
2022-11-21T13:56:51.355Z,9.37
2022-11-21T13:59:40.583Z,9.70
2022-11-21T14:02:38.164Z,10.30
2022-11-21T14:05:34.054Z,10.63
2022-11-21T14:08:24.363Z,10.90
2022-11-21T14:10:53.420Z,10.77
2022-11-21T14:13:33.088Z,9.50
2022-11-21T14:16:18.917Z,10.80
2022-11-21T14:18:47.199Z,10.73
2022-11-21T14:21:27.043Z,11.03
2022-11-21T14:24:00.238Z,12.33
2022-11-21T14:26:30.272Z,11.70
2022-11-21T14:29:22.734Z,12.10
2022-11-21T14:31:50.760Z,11.67
2022-11-21T14:34:26.791Z,11.63
2022-11-21T14:36:57.586Z,11.03
2022-11-21T14:39:37.722Z,11.57
2022-11-21T14:42:15.047Z,11.20
2022-11-21T14:44:42.506Z,11.97
2022-11-21T14:47:25.237Z,11.53
2022-11-21T14:49:55.530Z,11.57
2022-11-21T14:52:31.706Z,11.63
2022-11-21T14:57:52.748Z,12.70
2022-11-21T15:00:58.132Z,13.13
2022-11-21T15:03:24.251Z,14.40
2022-11-21T15:06:06.406Z,13.70
2022-11-21T15:09:52.757Z,12.90
2022-11-21T15:11:26.139Z,12.67
2022-11-21T15:14:15.479Z,13.87
2022-11-21T15:16:47.348Z,13.83
2022-11-21T15:19:21.153Z,13.20
2022-11-21T15:21:50.000Z,13.53
2022-11-21T15:24:37.523Z,13.40
2022-11-21T15:27:28.766Z,13.70
2022-11-21T15:30:11.209Z,15.17
2022-11-21T15:33:04.840Z,14.97
2022-11-21T15:35:37.503Z,14.90
2022-11-21T15:38:25.798Z,16.30
2022-11-21T15:41:07.063Z,14.43
2022-11-21T15:43:45.876Z,15.07
2022-11-21T15:46:24.490Z,15.30
2022-11-21T15:48:58.371Z,15.87
2022-11-21T15:51:59.668Z,14.87
2022-11-21T15:54:19.526Z,15.43
2022-11-21T15:56:47.492Z,15.07
2022-11-21T15:59:15.844Z,14.17
2022-11-21T16:01:43.480Z,15.27
2022-11-21T16:04:12.430Z,15.67
2022-11-21T16:06:40.094Z,15.30
2022-11-21T16:09:07.488Z,14.50
2022-11-21T16:11:54.959Z,13.47
2022-11-21T16:14:21.943Z,16.67
2022-11-21T16:16:49.378Z,15.53
2022-11-21T16:19:17.897Z,16.00
2022-11-21T16:21:45.485Z,15.17
2022-11-21T16:24:13.141Z,15.63
2022-11-21T16:26:40.920Z,16.17
2022-11-21T16:29:10.567Z,17.83
2022-11-21T16:31:37.940Z,23.75
2022-11-21T16:34:05.477Z,19.23
2022-11-21T16:36:32.709Z,21.67
2022-11-21T16:39:07.633Z,19.73
2022-11-21T16:41:36.536Z,18.77
2022-11-21T16:44:04.002Z,19.07
2022-11-21T16:46:30.984Z,18.53
2022-11-21T16:49:00.396Z,18.30
2022-11-21T16:51:28.175Z,18.73
2022-11-21T16:53:55.785Z,18.40
2022-11-21T16:56:23.467Z,18.83
2022-11-21T16:58:51.180Z,18.43
2022-11-21T17:01:21.141Z,18.93
2022-11-21T17:03:49.379Z,19.73
2022-11-21T17:06:19.665Z,18.87
2022-11-21T17:08:47.460Z,20.30
2022-11-21T17:11:20.368Z,17.63
2022-11-21T17:13:49.380Z,18.47
2022-11-21T17:16:18.958Z,19.97
2022-11-21T17:18:46.601Z,20.57
2022-11-21T17:21:16.357Z,21.13
2022-11-21T17:23:48.200Z,19.47
2022-11-21T17:26:18.887Z,18.77
2022-11-21T17:28:52.256Z,20.70
2022-11-21T17:31:21.750Z,20.67
2022-11-21T17:33:52.309Z,19.97
2022-11-21T17:36:22.083Z,19.00
2022-11-21T17:38:49.862Z,19.20
2022-11-21T17:41:18.935Z,19.23
2022-11-21T17:43:47.400Z,20.70
2022-11-21T17:46:17.711Z,21.20
2022-11-21T17:48:52.907Z,22.17
2022-11-21T17:51:24.311Z,19.70
2022-11-21T17:53:52.163Z,20.83
2022-11-21T17:56:24.634Z,21.13
2022-11-21T17:58:52.330Z,19.60
2022-11-21T18:01:20.332Z,19.67
2022-11-21T18:04:02.732Z,21.57
2022-11-21T18:06:34.170Z,21.27
2022-11-21T18:09:01.674Z,16.13
2022-11-21T18:11:36.049Z,19.63
2022-11-21T18:14:08.836Z,19.60
2022-11-21T18:16:36.408Z,20.77
2022-11-21T18:19:04.043Z,20.47
2022-11-21T18:21:35.378Z,18.13
2022-11-21T18:24:02.979Z,18.63
2022-11-21T18:26:33.681Z,21.90
2022-11-21T18:29:28.547Z,20.60
2022-11-21T18:31:50.657Z,21.63
2022-11-21T18:34:18.512Z,20.17
2022-11-21T18:36:47.686Z,21.53
2022-11-21T18:39:15.849Z,20.53
2022-11-21T18:41:44.052Z,20.57
2022-11-21T18:44:17.034Z,21.93
2022-11-21T18:46:48.160Z,21.80
2022-11-21T18:49:15.132Z,22.20
2022-11-21T18:51:42.558Z,22.57
2022-11-21T18:54:11.081Z,21.63
2022-11-21T18:56:39.436Z,21.93
2022-11-21T18:59:07.104Z,21.43
2022-11-21T19:01:36.091Z,21.13
2022-11-21T19:04:03.906Z,20.07
2022-11-21T19:06:31.379Z,21.80
2022-11-21T19:08:59.038Z,20.77
2022-11-21T19:11:30.091Z,21.17
2022-11-21T19:13:58.125Z,21.90
2022-11-21T19:16:26.975Z,22.10
2022-11-21T19:19:26.465Z,21.03
2022-11-21T19:21:42.691Z,23.13
2022-11-21T19:24:14.704Z,21.40
2022-11-21T19:26:42.742Z,21.97
2022-11-21T19:29:10.526Z,21.07
2022-11-21T19:31:44.837Z,21.87
2022-11-21T19:34:13.814Z,22.43
2022-11-21T19:36:41.258Z,20.63
2022-11-21T19:39:09.007Z,22.13
2022-11-21T19:41:36.570Z,23.00
2022-11-21T19:44:04.372Z,21.70
2022-11-21T19:46:33.618Z,21.07
2022-11-21T19:49:02.039Z,22.43
2022-11-21T19:51:34.377Z,22.77
2022-11-21T19:54:06.380Z,23.83
2022-11-21T19:56:33.960Z,19.97
2022-11-21T19:59:01.724Z,20.33
2022-11-21T20:01:30.677Z,22.10
2022-11-21T20:04:04.009Z,21.30
2022-11-21T20:06:49.422Z,23.00
2022-11-21T20:09:19.841Z,21.53
2022-11-21T20:11:49.007Z,22.50
2022-11-21T20:14:21.392Z,20.83
2022-11-21T20:16:50.065Z,22.97
2022-11-21T20:19:19.187Z,22.10
2022-11-21T20:21:46.808Z,22.73
2022-11-21T20:24:14.570Z,22.53
2022-11-21T20:26:42.362Z,23.53
2022-11-21T20:29:11.704Z,23.33
2022-11-21T20:31:39.169Z,23.27
2022-11-21T20:34:10.072Z,22.77
2022-11-21T20:36:37.677Z,24.23
2022-11-21T20:39:07.151Z,23.57
2022-11-21T20:41:36.110Z,26.87
2022-11-21T20:46:53.355Z,26.13
2022-11-21T20:49:20.671Z,26.20
2022-11-21T20:53:36.582Z,24.07
2022-11-21T20:54:35.885Z,23.33
2022-11-21T20:57:03.218Z,23.73
2022-11-21T20:59:30.795Z,22.87
2022-11-21T21:01:58.255Z,22.50
2022-11-21T21:04:25.623Z,23.30
2022-11-21T21:06:52.945Z,22.20
2022-11-21T21:09:20.320Z,20.43
2022-11-21T21:11:52.480Z,22.08
2022-11-21T21:14:20.551Z,21.47
2022-11-21T21:16:47.954Z,20.50
2022-11-21T21:19:15.322Z,21.63
2022-11-21T21:21:42.682Z,18.50
2022-11-21T21:24:11.331Z,19.43
2022-11-21T21:26:42.959Z,20.90
2022-11-21T21:29:13.104Z,17.87
2022-11-21T21:31:43.866Z,19.77
2022-11-21T21:34:14.559Z,18.33
2022-11-21T21:36:41.942Z,19.07
2022-11-21T21:39:09.253Z,19.13
2022-11-21T21:41:39.830Z,23.90
2022-11-21T21:44:07.461Z,22.03
2022-11-21T21:46:34.837Z,17.30
2022-11-21T21:49:02.273Z,17.97
2022-11-21T21:51:31.090Z,18.60
2022-11-21T21:53:59.646Z,18.83
2022-11-21T21:56:28.241Z,17.23
2022-11-21T21:58:57.078Z,19.20
2022-11-21T22:01:29.407Z,20.63
2022-11-21T22:03:58.373Z,22.40
2022-11-21T22:06:25.970Z,21.57
2022-11-21T22:08:54.588Z,19.20
2022-11-21T22:11:21.967Z,20.10
2022-11-21T22:13:53.090Z,19.17
2022-11-21T22:16:20.553Z,18.03
2022-11-21T22:18:48.017Z,17.33
2022-11-21T22:21:15.431Z,22.42
2022-11-21T22:23:56.415Z,18.20
2022-11-21T22:26:30.210Z,18.13
2022-11-21T22:28:57.628Z,18.33
2022-11-21T22:31:25.013Z,17.43
2022-11-21T22:33:52.515Z,18.57
2022-11-21T22:36:20.119Z,18.57
2022-11-21T22:38:47.574Z,18.60
2022-11-21T22:41:20.404Z,17.67
2022-11-21T22:43:55.841Z,21.20
2022-11-21T22:46:24.020Z,20.97
2022-11-21T22:48:51.663Z,17.67
2022-11-21T22:51:21.464Z,18.73
2022-11-21T22:53:49.378Z,19.73
2022-11-21T22:56:18.633Z,18.30
2022-11-21T22:58:46.526Z,18.57
2022-11-21T23:01:19.138Z,18.30
2022-11-21T23:03:47.407Z,18.53
2022-11-21T23:06:19.698Z,19.10
2022-11-21T23:08:47.601Z,19.07
2022-11-21T23:11:19.872Z,18.43
2022-11-21T23:13:47.926Z,19.03
2022-11-21T23:16:15.576Z,18.90
2022-11-21T23:18:43.839Z,19.80
2022-11-21T23:21:12.617Z,20.83
2022-11-21T23:23:40.373Z,20.00
2022-11-21T23:26:08.138Z,18.10
2022-11-21T23:28:35.576Z,18.50
2022-11-21T23:31:03.487Z,21.43
2022-11-21T23:33:30.900Z,19.77
2022-11-21T23:35:58.278Z,18.37
2022-11-21T23:38:25.930Z,20.13
2022-11-21T23:40:53.480Z,19.13
2022-11-21T23:43:20.860Z,18.33
2022-11-21T23:45:52.015Z,20.03
2022-11-21T23:48:19.986Z,19.73
2022-11-21T23:50:48.150Z,19.70
2022-11-21T23:53:15.742Z,19.20
2022-11-21T23:55:43.918Z,18.47
2022-11-21T23:58:11.590Z,18.80
